sensor_id;sensor_type;location;lat;lon;timestamp;temperature;humidity
29547;DHT22;40782;47.264;11.330;2023-03-05T00:01:52;3.20;99.90
29547;DHT22;40782;47.264;11.330;2023-03-05T00:04:20;3.20;99.90
29547;DHT22;40782;47.264;11.330;2023-03-05T00:06:48;3.20;99.90
29547;DHT22;40782;47.264;11.330;2023-03-05T00:09:15;3.20;99.90
29547;DHT22;40782;47.264;11.330;2023-03-05T00:11:42;3.20;99.90
29547;DHT22;40782;47.264;11.330;2023-03-05T00:14:09;3.20;99.90
29547;DHT22;40782;47.264;11.330;2023-03-05T00:16:37;3.30;99.90
29547;DHT22;40782;47.264;11.330;2023-03-05T00:19:04;3.30;99.90
29547;DHT22;40782;47.264;11.330;2023-03-05T00:21:33;3.30;99.90
29547;DHT22;40782;47.264;11.330;2023-03-05T00:24:00;3.30;99.90
29547;DHT22;40782;47.264;11.330;2023-03-05T00:26:28;3.30;99.90
29547;DHT22;40782;47.264;11.330;2023-03-05T00:28:56;3.30;99.90
29547;DHT22;40782;47.264;11.330;2023-03-05T00:31:24;3.30;99.90
29547;DHT22;40782;47.264;11.330;2023-03-05T00:33:51;3.20;99.90
29547;DHT22;40782;47.264;11.330;2023-03-05T00:36:18;3.30;99.90
29547;DHT22;40782;47.264;11.330;2023-03-05T00:38:47;3.30;99.90
29547;DHT22;40782;47.264;11.330;2023-03-05T00:41:14;3.40;99.90
29547;DHT22;40782;47.264;11.330;2023-03-05T00:43:41;3.30;99.90
29547;DHT22;40782;47.264;11.330;2023-03-05T00:46:08;3.20;99.90
29547;DHT22;40782;47.264;11.330;2023-03-05T00:48:35;3.30;99.90
29547;DHT22;40782;47.264;11.330;2023-03-05T00:51:02;3.30;99.90
29547;DHT22;40782;47.264;11.330;2023-03-05T00:53:30;3.30;99.90
29547;DHT22;40782;47.264;11.330;2023-03-05T00:55:58;3.30;99.90
29547;DHT22;40782;47.264;11.330;2023-03-05T00:58:25;3.30;99.90
29547;DHT22;40782;47.264;11.330;2023-03-05T01:00:55;3.40;99.90
29547;DHT22;40782;47.264;11.330;2023-03-05T01:03:22;3.40;99.90
29547;DHT22;40782;47.264;11.330;2023-03-05T01:05:49;3.40;99.90
29547;DHT22;40782;47.264;11.330;2023-03-05T01:08:17;3.50;99.90
29547;DHT22;40782;47.264;11.330;2023-03-05T01:10:44;3.60;99.90
29547;DHT22;40782;47.264;11.330;2023-03-05T01:13:13;3.50;99.90
29547;DHT22;40782;47.264;11.330;2023-03-05T01:15:40;3.50;99.90
29547;DHT22;40782;47.264;11.330;2023-03-05T01:18:08;3.50;99.90
29547;DHT22;40782;47.264;11.330;2023-03-05T01:20:35;3.50;99.90
29547;DHT22;40782;47.264;11.330;2023-03-05T01:23:02;3.50;99.90
29547;DHT22;40782;47.264;11.330;2023-03-05T01:25:29;3.50;99.90
29547;DHT22;40782;47.264;11.330;2023-03-05T01:27:56;3.50;99.90
29547;DHT22;40782;47.264;11.330;2023-03-05T01:30:25;3.50;99.90
29547;DHT22;40782;47.264;11.330;2023-03-05T01:32:52;3.40;99.90
29547;DHT22;40782;47.264;11.330;2023-03-05T01:35:21;3.30;99.90
29547;DHT22;40782;47.264;11.330;2023-03-05T01:37:49;3.30;99.90
29547;DHT22;40782;47.264;11.330;2023-03-05T01:40:17;3.40;99.90
29547;DHT22;40782;47.264;11.330;2023-03-05T01:42:45;3.40;99.90
29547;DHT22;40782;47.264;11.330;2023-03-05T01:45:13;3.40;99.90
29547;DHT22;40782;47.264;11.330;2023-03-05T01:47:42;3.30;99.90
29547;DHT22;40782;47.264;11.330;2023-03-05T01:50:10;3.20;99.90
29547;DHT22;40782;47.264;11.330;2023-03-05T01:52:39;3.30;99.90
29547;DHT22;40782;47.264;11.330;2023-03-05T01:55:08;3.30;99.90
29547;DHT22;40782;47.264;11.330;2023-03-05T01:57:36;3.30;99.90
29547;DHT22;40782;47.264;11.330;2023-03-05T02:00:05;3.20;99.90
29547;DHT22;40782;47.264;11.330;2023-03-05T02:02:34;3.30;99.90
29547;DHT22;40782;47.264;11.330;2023-03-05T02:05:04;3.30;99.90
29547;DHT22;40782;47.264;11.330;2023-03-05T02:07:32;3.20;99.90
29547;DHT22;40782;47.264;11.330;2023-03-05T02:10:01;3.30;99.90
29547;DHT22;40782;47.264;11.330;2023-03-05T02:12:30;3.30;99.90
29547;DHT22;40782;47.264;11.330;2023-03-05T02:14:57;3.20;99.90
29547;DHT22;40782;47.264;11.330;2023-03-05T02:17:25;3.30;99.90
29547;DHT22;40782;47.264;11.330;2023-03-05T02:19:53;3.20;99.90
29547;DHT22;40782;47.264;11.330;2023-03-05T02:22:22;3.20;99.90
29547;DHT22;40782;47.264;11.330;2023-03-05T02:24:49;3.20;99.90
29547;DHT22;40782;47.264;11.330;2023-03-05T02:27:17;3.20;99.90
29547;DHT22;40782;47.264;11.330;2023-03-05T02:29:46;3.10;99.90
29547;DHT22;40782;47.264;11.330;2023-03-05T02:32:13;3.10;99.90
29547;DHT22;40782;47.264;11.330;2023-03-05T02:34:40;3.00;99.90
29547;DHT22;40782;47.264;11.330;2023-03-05T02:37:08;3.00;99.90
29547;DHT22;40782;47.264;11.330;2023-03-05T02:39:36;3.00;99.90
29547;DHT22;40782;47.264;11.330;2023-03-05T02:42:04;2.90;99.90
29547;DHT22;40782;47.264;11.330;2023-03-05T02:44:31;2.90;99.90
29547;DHT22;40782;47.264;11.330;2023-03-05T02:46:58;2.90;99.90
29547;DHT22;40782;47.264;11.330;2023-03-05T02:49:25;2.90;99.90
29547;DHT22;40782;47.264;11.330;2023-03-05T02:51:53;2.90;99.90
29547;DHT22;40782;47.264;11.330;2023-03-05T02:54:20;2.90;99.90
29547;DHT22;40782;47.264;11.330;2023-03-05T02:56:48;2.80;99.90
29547;DHT22;40782;47.264;11.330;2023-03-05T02:59:16;2.80;99.90
29547;DHT22;40782;47.264;11.330;2023-03-05T03:01:43;2.70;99.90
29547;DHT22;40782;47.264;11.330;2023-03-05T03:04:10;2.60;99.90
29547;DHT22;40782;47.264;11.330;2023-03-05T03:06:37;2.70;99.90
29547;DHT22;40782;47.264;11.330;2023-03-05T03:09:04;2.70;99.90
29547;DHT22;40782;47.264;11.330;2023-03-05T03:11:31;2.60;99.90
29547;DHT22;40782;47.264;11.330;2023-03-05T03:13:59;2.70;99.90
29547;DHT22;40782;47.264;11.330;2023-03-05T03:16:26;2.70;99.90
29547;DHT22;40782;47.264;11.330;2023-03-05T03:18:54;2.70;99.90
29547;DHT22;40782;47.264;11.330;2023-03-05T03:21:22;2.70;99.90
29547;DHT22;40782;47.264;11.330;2023-03-05T03:23:49;2.70;99.90
29547;DHT22;40782;47.264;11.330;2023-03-05T03:26:16;2.70;99.90
29547;DHT22;40782;47.264;11.330;2023-03-05T03:28:43;2.70;99.90
29547;DHT22;40782;47.264;11.330;2023-03-05T03:31:12;2.70;99.90
29547;DHT22;40782;47.264;11.330;2023-03-05T03:33:39;2.60;99.90
29547;DHT22;40782;47.264;11.330;2023-03-05T03:36:06;2.50;99.90
29547;DHT22;40782;47.264;11.330;2023-03-05T03:38:33;2.60;99.90
29547;DHT22;40782;47.264;11.330;2023-03-05T03:41:01;2.60;99.90
29547;DHT22;40782;47.264;11.330;2023-03-05T03:43:28;2.60;99.90
29547;DHT22;40782;47.264;11.330;2023-03-05T03:45:55;2.60;99.90
29547;DHT22;40782;47.264;11.330;2023-03-05T03:48:23;2.70;99.90
29547;DHT22;40782;47.264;11.330;2023-03-05T03:50:50;2.70;99.90
29547;DHT22;40782;47.264;11.330;2023-03-05T03:53:17;2.60;99.90
29547;DHT22;40782;47.264;11.330;2023-03-05T03:55:44;2.60;99.90
29547;DHT22;40782;47.264;11.330;2023-03-05T03:58:12;2.60;99.90
29547;DHT22;40782;47.264;11.330;2023-03-05T04:00:39;2.60;99.90
29547;DHT22;40782;47.264;11.330;2023-03-05T04:03:06;2.50;99.90
29547;DHT22;40782;47.264;11.330;2023-03-05T04:05:34;2.50;99.90
29547;DHT22;40782;47.264;11.330;2023-03-05T04:08:01;2.40;99.90
29547;DHT22;40782;47.264;11.330;2023-03-05T04:10:28;2.40;99.90
29547;DHT22;40782;47.264;11.330;2023-03-05T04:12:55;2.30;99.90
29547;DHT22;40782;47.264;11.330;2023-03-05T04:15:22;2.40;99.90
29547;DHT22;40782;47.264;11.330;2023-03-05T04:17:50;2.40;99.90
29547;DHT22;40782;47.264;11.330;2023-03-05T04:20:17;2.40;99.90
29547;DHT22;40782;47.264;11.330;2023-03-05T04:22:45;2.40;99.90
29547;DHT22;40782;47.264;11.330;2023-03-05T04:25:12;2.30;99.90
29547;DHT22;40782;47.264;11.330;2023-03-05T04:27:39;2.30;99.90
29547;DHT22;40782;47.264;11.330;2023-03-05T04:30:07;2.30;99.90
29547;DHT22;40782;47.264;11.330;2023-03-05T04:32:34;2.30;99.90
29547;DHT22;40782;47.264;11.330;2023-03-05T04:35:01;2.40;99.90
29547;DHT22;40782;47.264;11.330;2023-03-05T04:37:28;2.30;99.90
29547;DHT22;40782;47.264;11.330;2023-03-05T04:39:57;2.30;99.90
29547;DHT22;40782;47.264;11.330;2023-03-05T04:42:24;2.40;99.90
29547;DHT22;40782;47.264;11.330;2023-03-05T04:44:51;2.40;99.90
29547;DHT22;40782;47.264;11.330;2023-03-05T04:47:18;2.40;99.90
29547;DHT22;40782;47.264;11.330;2023-03-05T04:49:45;2.50;99.90
29547;DHT22;40782;47.264;11.330;2023-03-05T04:52:13;2.50;99.90
29547;DHT22;40782;47.264;11.330;2023-03-05T04:54:40;2.50;99.90
29547;DHT22;40782;47.264;11.330;2023-03-05T04:57:08;2.50;99.90
29547;DHT22;40782;47.264;11.330;2023-03-05T04:59:36;2.40;99.90
29547;DHT22;40782;47.264;11.330;2023-03-05T05:02:03;2.30;99.90
29547;DHT22;40782;47.264;11.330;2023-03-05T05:04:30;2.20;99.90
29547;DHT22;40782;47.264;11.330;2023-03-05T05:06:57;2.20;99.90
29547;DHT22;40782;47.264;11.330;2023-03-05T05:09:24;2.20;99.90
29547;DHT22;40782;47.264;11.330;2023-03-05T05:11:51;2.10;99.90
29547;DHT22;40782;47.264;11.330;2023-03-05T05:14:20;1.80;99.90
29547;DHT22;40782;47.264;11.330;2023-03-05T05:16:47;1.80;99.90
29547;DHT22;40782;47.264;11.330;2023-03-05T05:19:14;1.70;99.90
29547;DHT22;40782;47.264;11.330;2023-03-05T05:21:41;1.80;99.90
29547;DHT22;40782;47.264;11.330;2023-03-05T05:24:08;1.80;99.90
29547;DHT22;40782;47.264;11.330;2023-03-05T05:26:35;1.70;99.90
29547;DHT22;40782;47.264;11.330;2023-03-05T05:29:02;1.60;99.90
29547;DHT22;40782;47.264;11.330;2023-03-05T05:31:31;1.60;99.90
29547;DHT22;40782;47.264;11.330;2023-03-05T05:33:58;1.60;99.90
29547;DHT22;40782;47.264;11.330;2023-03-05T05:36:25;1.50;99.90
29547;DHT22;40782;47.264;11.330;2023-03-05T05:38:52;1.60;99.90
29547;DHT22;40782;47.264;11.330;2023-03-05T05:41:19;1.50;99.90
29547;DHT22;40782;47.264;11.330;2023-03-05T05:43:47;1.50;99.90
29547;DHT22;40782;47.264;11.330;2023-03-05T05:46:15;1.30;99.90
29547;DHT22;40782;47.264;11.330;2023-03-05T05:48:44;1.30;99.90
29547;DHT22;40782;47.264;11.330;2023-03-05T05:51:13;1.30;99.90
29547;DHT22;40782;47.264;11.330;2023-03-05T05:53:40;1.30;99.90
29547;DHT22;40782;47.264;11.330;2023-03-05T05:56:08;1.30;99.90
29547;DHT22;40782;47.264;11.330;2023-03-05T05:58:36;1.40;99.90
29547;DHT22;40782;47.264;11.330;2023-03-05T06:01:10;1.30;99.90
29547;DHT22;40782;47.264;11.330;2023-03-05T06:03:37;1.30;99.90
29547;DHT22;40782;47.264;11.330;2023-03-05T06:06:08;1.40;99.90
29547;DHT22;40782;47.264;11.330;2023-03-05T06:08:35;1.40;99.90
29547;DHT22;40782;47.264;11.330;2023-03-05T06:11:02;1.40;99.90
29547;DHT22;40782;47.264;11.330;2023-03-05T06:13:29;1.50;99.90
29547;DHT22;40782;47.264;11.330;2023-03-05T06:15:56;1.50;99.90
29547;DHT22;40782;47.264;11.330;2023-03-05T06:18:24;1.70;99.90
29547;DHT22;40782;47.264;11.330;2023-03-05T06:20:55;1.60;99.90
29547;DHT22;40782;47.264;11.330;2023-03-05T06:23:24;1.80;99.90
29547;DHT22;40782;47.264;11.330;2023-03-05T06:25:51;1.70;99.90
29547;DHT22;40782;47.264;11.330;2023-03-05T06:28:18;1.60;99.90
29547;DHT22;40782;47.264;11.330;2023-03-05T06:30:45;1.60;99.90
29547;DHT22;40782;47.264;11.330;2023-03-05T06:33:12;1.70;99.90
29547;DHT22;40782;47.264;11.330;2023-03-05T06:35:39;1.70;99.90
29547;DHT22;40782;47.264;11.330;2023-03-05T06:38:07;1.60;99.90
29547;DHT22;40782;47.264;11.330;2023-03-05T06:40:37;1.60;99.90
29547;DHT22;40782;47.264;11.330;2023-03-05T06:43:04;1.80;99.90
29547;DHT22;40782;47.264;11.330;2023-03-05T06:45:31;1.70;99.90
29547;DHT22;40782;47.264;11.330;2023-03-05T06:47:58;1.70;99.90
29547;DHT22;40782;47.264;11.330;2023-03-05T06:50:25;1.70;1.00
29547;DHT22;40782;47.264;11.330;2023-03-05T06:52:52;1.70;1.00
29547;DHT22;40782;47.264;11.330;2023-03-05T06:55:19;1.70;1.00
29547;DHT22;40782;47.264;11.330;2023-03-05T06:57:48;1.70;1.00
29547;DHT22;40782;47.264;11.330;2023-03-05T07:00:15;1.70;1.00
29547;DHT22;40782;47.264;11.330;2023-03-05T07:02:42;1.80;1.00
29547;DHT22;40782;47.264;11.330;2023-03-05T07:05:09;1.90;1.00
29547;DHT22;40782;47.264;11.330;2023-03-05T07:07:36;2.10;1.00
29547;DHT22;40782;47.264;11.330;2023-03-05T07:10:04;2.30;99.90
29547;DHT22;40782;47.264;11.330;2023-03-05T07:12:32;2.30;99.90
29547;DHT22;40782;47.264;11.330;2023-03-05T07:15:01;2.30;99.90
29547;DHT22;40782;47.264;11.330;2023-03-05T07:17:28;2.40;99.90
29547;DHT22;40782;47.264;11.330;2023-03-05T07:19:55;2.40;99.90
29547;DHT22;40782;47.264;11.330;2023-03-05T07:22:22;2.40;99.90
29547;DHT22;40782;47.264;11.330;2023-03-05T07:24:49;2.30;99.90
29547;DHT22;40782;47.264;11.330;2023-03-05T07:27:16;2.50;99.90
29547;DHT22;40782;47.264;11.330;2023-03-05T07:29:43;2.80;99.90
29547;DHT22;40782;47.264;11.330;2023-03-05T07:32:12;2.90;99.90
29547;DHT22;40782;47.264;11.330;2023-03-05T07:34:39;3.10;99.90
29547;DHT22;40782;47.264;11.330;2023-03-05T07:37:06;3.10;99.90
29547;DHT22;40782;47.264;11.330;2023-03-05T07:39:33;3.20;99.90
29547;DHT22;40782;47.264;11.330;2023-03-05T07:42:00;3.10;99.90
29547;DHT22;40782;47.264;11.330;2023-03-05T07:44:27;3.30;99.90
29547;DHT22;40782;47.264;11.330;2023-03-05T07:46:54;3.40;99.90
29547;DHT22;40782;47.264;11.330;2023-03-05T07:49:22;3.40;99.90
29547;DHT22;40782;47.264;11.330;2023-03-05T07:51:49;3.50;99.90
29547;DHT22;40782;47.264;11.330;2023-03-05T07:54:17;3.40;99.90
29547;DHT22;40782;47.264;11.330;2023-03-05T07:56:44;3.10;99.90
29547;DHT22;40782;47.264;11.330;2023-03-05T07:59:11;3.10;99.90
29547;DHT22;40782;47.264;11.330;2023-03-05T08:01:39;3.30;99.90
29547;DHT22;40782;47.264;11.330;2023-03-05T08:04:06;3.20;99.90
29547;DHT22;40782;47.264;11.330;2023-03-05T08:06:38;3.20;99.90
29547;DHT22;40782;47.264;11.330;2023-03-05T08:09:06;3.40;99.90
29547;DHT22;40782;47.264;11.330;2023-03-05T08:11:33;3.50;99.90
29547;DHT22;40782;47.264;11.330;2023-03-05T08:14:00;4.00;99.90
29547;DHT22;40782;47.264;11.330;2023-03-05T08:16:29;4.30;99.90
29547;DHT22;40782;47.264;11.330;2023-03-05T08:18:56;4.60;99.90
29547;DHT22;40782;47.264;11.330;2023-03-05T08:21:24;5.50;99.90
29547;DHT22;40782;47.264;11.330;2023-03-05T08:23:55;6.10;99.90
29547;DHT22;40782;47.264;11.330;2023-03-05T08:26:23;6.10;99.90
29547;DHT22;40782;47.264;11.330;2023-03-05T08:28:50;6.60;99.90
29547;DHT22;40782;47.264;11.330;2023-03-05T08:31:18;6.60;99.90
29547;DHT22;40782;47.264;11.330;2023-03-05T08:33:46;6.80;99.90
29547;DHT22;40782;47.264;11.330;2023-03-05T08:36:13;8.00;99.90
29547;DHT22;40782;47.264;11.330;2023-03-05T08:38:40;8.40;99.90
29547;DHT22;40782;47.264;11.330;2023-03-05T08:41:10;8.50;99.90
29547;DHT22;40782;47.264;11.330;2023-03-05T08:43:37;8.00;99.90
29547;DHT22;40782;47.264;11.330;2023-03-05T08:46:04;8.20;99.90
29547;DHT22;40782;47.264;11.330;2023-03-05T08:48:31;7.80;99.90
29547;DHT22;40782;47.264;11.330;2023-03-05T08:51:03;7.50;99.90
29547;DHT22;40782;47.264;11.330;2023-03-05T08:53:30;6.80;99.90
29547;DHT22;40782;47.264;11.330;2023-03-05T08:55:57;6.20;99.90
29547;DHT22;40782;47.264;11.330;2023-03-05T08:58:26;5.90;99.90
29547;DHT22;40782;47.264;11.330;2023-03-05T09:00:54;5.60;99.90
29547;DHT22;40782;47.264;11.330;2023-03-05T09:03:21;5.50;99.90
29547;DHT22;40782;47.264;11.330;2023-03-05T09:05:48;5.50;99.90
29547;DHT22;40782;47.264;11.330;2023-03-05T09:08:16;5.70;99.90
29547;DHT22;40782;47.264;11.330;2023-03-05T09:10:43;5.70;99.90
29547;DHT22;40782;47.264;11.330;2023-03-05T09:13:11;5.60;99.90
29547;DHT22;40782;47.264;11.330;2023-03-05T09:15:39;5.60;99.90
29547;DHT22;40782;47.264;11.330;2023-03-05T09:18:06;5.70;99.90
29547;DHT22;40782;47.264;11.330;2023-03-05T09:20:33;5.70;99.90
29547;DHT22;40782;47.264;11.330;2023-03-05T09:23:00;6.00;99.90
29547;DHT22;40782;47.264;11.330;2023-03-05T09:25:28;6.20;99.90
29547;DHT22;40782;47.264;11.330;2023-03-05T09:27:55;6.20;99.90
29547;DHT22;40782;47.264;11.330;2023-03-05T09:30:22;6.30;99.90
29547;DHT22;40782;47.264;11.330;2023-03-05T09:32:50;6.30;99.90
29547;DHT22;40782;47.264;11.330;2023-03-05T09:35:18;6.30;99.90
29547;DHT22;40782;47.264;11.330;2023-03-05T09:37:45;6.20;99.90
29547;DHT22;40782;47.264;11.330;2023-03-05T09:40:13;6.10;99.90
29547;DHT22;40782;47.264;11.330;2023-03-05T09:42:47;6.50;99.90
29547;DHT22;40782;47.264;11.330;2023-03-05T09:45:18;6.70;99.90
29547;DHT22;40782;47.264;11.330;2023-03-05T09:47:52;7.20;99.90
29547;DHT22;40782;47.264;11.330;2023-03-05T09:50:24;7.50;99.90
29547;DHT22;40782;47.264;11.330;2023-03-05T09:52:57;7.80;99.90
29547;DHT22;40782;47.264;11.330;2023-03-05T09:55:26;8.00;99.90
29547;DHT22;40782;47.264;11.330;2023-03-05T09:57:56;8.10;99.90
29547;DHT22;40782;47.264;11.330;2023-03-05T10:00:27;7.80;99.90
29547;DHT22;40782;47.264;11.330;2023-03-05T10:02:58;8.40;99.90
29547;DHT22;40782;47.264;11.330;2023-03-05T10:05:27;8.40;99.90
29547;DHT22;40782;47.264;11.330;2023-03-05T10:07:56;8.50;99.90
29547;DHT22;40782;47.264;11.330;2023-03-05T10:10:26;8.60;99.90
29547;DHT22;40782;47.264;11.330;2023-03-05T10:12:55;8.50;99.90
29547;DHT22;40782;47.264;11.330;2023-03-05T10:15:24;9.10;99.90
29547;DHT22;40782;47.264;11.330;2023-03-05T10:17:56;9.70;99.90
29547;DHT22;40782;47.264;11.330;2023-03-05T10:20:28;9.80;99.90
29547;DHT22;40782;47.264;11.330;2023-03-05T10:23:02;9.60;99.90
29547;DHT22;40782;47.264;11.330;2023-03-05T10:25:35;9.50;99.90
29547;DHT22;40782;47.264;11.330;2023-03-05T10:28:09;9.70;99.90
29547;DHT22;40782;47.264;11.330;2023-03-05T10:30:48;10.10;99.90
29547;DHT22;40782;47.264;11.330;2023-03-05T10:33:21;10.70;99.90
29547;DHT22;40782;47.264;11.330;2023-03-05T10:35:59;11.00;99.90
29547;DHT22;40782;47.264;11.330;2023-03-05T10:38:38;11.10;99.90
29547;DHT22;40782;47.264;11.330;2023-03-05T10:41:11;11.60;99.90
29547;DHT22;40782;47.264;11.330;2023-03-05T10:43:43;12.20;99.90
29547;DHT22;40782;47.264;11.330;2023-03-05T10:46:14;12.30;99.90
29547;DHT22;40782;47.264;11.330;2023-03-05T10:48:43;12.80;99.90
29547;DHT22;40782;47.264;11.330;2023-03-05T10:51:15;12.60;99.90
29547;DHT22;40782;47.264;11.330;2023-03-05T10:53:46;13.00;99.90
29547;DHT22;40782;47.264;11.330;2023-03-05T10:56:14;13.20;99.90
29547;DHT22;40782;47.264;11.330;2023-03-05T10:58:41;12.50;99.90
29547;DHT22;40782;47.264;11.330;2023-03-05T11:01:18;12.70;99.90
29547;DHT22;40782;47.264;11.330;2023-03-05T11:03:48;13.30;99.90
29547;DHT22;40782;47.264;11.330;2023-03-05T11:06:21;13.40;99.90
29547;DHT22;40782;47.264;11.330;2023-03-05T11:08:52;13.70;99.90
29547;DHT22;40782;47.264;11.330;2023-03-05T11:11:20;13.70;99.90
29547;DHT22;40782;47.264;11.330;2023-03-05T11:13:50;13.90;99.90
29547;DHT22;40782;47.264;11.330;2023-03-05T11:16:19;14.30;99.90
29547;DHT22;40782;47.264;11.330;2023-03-05T11:18:46;14.60;99.90
29547;DHT22;40782;47.264;11.330;2023-03-05T11:21:19;14.80;99.90
29547;DHT22;40782;47.264;11.330;2023-03-05T11:26:44;14.60;99.90
29547;DHT22;40782;47.264;11.330;2023-03-05T11:29:15;15.00;99.90
29547;DHT22;40782;47.264;11.330;2023-03-05T11:31:42;14.90;99.00
29547;DHT22;40782;47.264;11.330;2023-03-05T11:34:20;15.10;98.30
29547;DHT22;40782;47.264;11.330;2023-03-05T11:36:59;15.00;97.80
29547;DHT22;40782;47.264;11.330;2023-03-05T11:39:28;15.10;96.50
29547;DHT22;40782;47.264;11.330;2023-03-05T11:41:59;15.30;95.60
29547;DHT22;40782;47.264;11.330;2023-03-05T11:44:27;15.90;93.90
29547;DHT22;40782;47.264;11.330;2023-03-05T11:46:56;16.20;91.70
29547;DHT22;40782;47.264;11.330;2023-03-05T11:49:25;16.50;91.70
29547;DHT22;40782;47.264;11.330;2023-03-05T11:51:55;16.30;90.40
29547;DHT22;40782;47.264;11.330;2023-03-05T11:54:27;16.70;89.10
29547;DHT22;40782;47.264;11.330;2023-03-05T11:56:56;16.70;88.60
29547;DHT22;40782;47.264;11.330;2023-03-05T11:59:24;17.10;86.90
29547;DHT22;40782;47.264;11.330;2023-03-05T12:01:54;18.00;82.40
29547;DHT22;40782;47.264;11.330;2023-03-05T12:04:22;17.90;81.70
29547;DHT22;40782;47.264;11.330;2023-03-05T12:06:50;18.60;74.60
29547;DHT22;40782;47.264;11.330;2023-03-05T12:09:21;18.70;69.30
29547;DHT22;40782;47.264;11.330;2023-03-05T12:11:50;18.60;69.00
29547;DHT22;40782;47.264;11.330;2023-03-05T12:14:19;18.50;66.60
29547;DHT22;40782;47.264;11.330;2023-03-05T12:16:49;18.80;63.30
29547;DHT22;40782;47.264;11.330;2023-03-05T12:19:25;19.00;58.50
29547;DHT22;40782;47.264;11.330;2023-03-05T12:21:55;18.50;58.00
29547;DHT22;40782;47.264;11.330;2023-03-05T12:24:35;18.30;55.00
29547;DHT22;40782;47.264;11.330;2023-03-05T12:27:08;18.10;56.20
29547;DHT22;40782;47.264;11.330;2023-03-05T12:35:21;19.10;55.60
29547;DHT22;40782;47.264;11.330;2023-03-05T12:40:34;20.00;51.90
29547;DHT22;40782;47.264;11.330;2023-03-05T12:43:03;20.50;47.40
29547;DHT22;40782;47.264;11.330;2023-03-05T12:45:40;20.80;41.80
29547;DHT22;40782;47.264;11.330;2023-03-05T12:50:56;20.20;41.60
29547;DHT22;40782;47.264;11.330;2023-03-05T12:53:23;20.50;40.30
29547;DHT22;40782;47.264;11.330;2023-03-05T12:55:53;20.30;38.40
29547;DHT22;40782;47.264;11.330;2023-03-05T12:58:26;20.20;37.80
29547;DHT22;40782;47.264;11.330;2023-03-05T13:01:00;20.60;39.60
29547;DHT22;40782;47.264;11.330;2023-03-05T13:03:29;20.50;32.00
29547;DHT22;40782;47.264;11.330;2023-03-05T13:05:58;20.50;34.10
29547;DHT22;40782;47.264;11.330;2023-03-05T13:08:29;20.10;33.60
29547;DHT22;40782;47.264;11.330;2023-03-05T13:10:58;20.80;34.80
29547;DHT22;40782;47.264;11.330;2023-03-05T13:13:27;21.10;31.60
29547;DHT22;40782;47.264;11.330;2023-03-05T13:15:55;20.90;30.80
29547;DHT22;40782;47.264;11.330;2023-03-05T13:18:23;20.80;50.50
29547;DHT22;40782;47.264;11.330;2023-03-05T13:20:58;20.60;31.20
29547;DHT22;40782;47.264;11.330;2023-03-05T13:23:26;20.90;31.60
29547;DHT22;40782;47.264;11.330;2023-03-05T13:26:01;20.80;30.00
29547;DHT22;40782;47.264;11.330;2023-03-05T13:28:30;20.50;29.90
29547;DHT22;40782;47.264;11.330;2023-03-05T13:30:58;20.50;29.00
29547;DHT22;40782;47.264;11.330;2023-03-05T13:33:28;20.60;32.10
29547;DHT22;40782;47.264;11.330;2023-03-05T13:35:55;20.90;30.00
29547;DHT22;40782;47.264;11.330;2023-03-05T13:38:23;20.70;28.20
29547;DHT22;40782;47.264;11.330;2023-03-05T13:43:46;20.30;31.10
29547;DHT22;40782;47.264;11.330;2023-03-05T13:46:21;20.50;28.60
29547;DHT22;40782;47.264;11.330;2023-03-05T13:48:48;20.80;30.20
29547;DHT22;40782;47.264;11.330;2023-03-05T13:51:15;21.00;28.30
29547;DHT22;40782;47.264;11.330;2023-03-05T13:53:42;20.70;28.60
29547;DHT22;40782;47.264;11.330;2023-03-05T13:56:12;20.50;27.90
29547;DHT22;40782;47.264;11.330;2023-03-05T13:58:40;20.80;27.80
29547;DHT22;40782;47.264;11.330;2023-03-05T14:01:12;20.90;27.60
29547;DHT22;40782;47.264;11.330;2023-03-05T14:03:40;20.90;25.80
29547;DHT22;40782;47.264;11.330;2023-03-05T14:06:07;20.80;24.80
29547;DHT22;40782;47.264;11.330;2023-03-05T14:08:35;21.10;24.90
29547;DHT22;40782;47.264;11.330;2023-03-05T14:11:10;21.40;24.10
29547;DHT22;40782;47.264;11.330;2023-03-05T14:13:37;21.10;23.00
29547;DHT22;40782;47.264;11.330;2023-03-05T14:16:05;20.70;23.50
29547;DHT22;40782;47.264;11.330;2023-03-05T14:18:34;20.50;23.60
29547;DHT22;40782;47.264;11.330;2023-03-05T14:21:02;20.40;24.20
29547;DHT22;40782;47.264;11.330;2023-03-05T14:23:34;20.60;25.20
29547;DHT22;40782;47.264;11.330;2023-03-05T14:26:18;21.00;24.00
29547;DHT22;40782;47.264;11.330;2023-03-05T14:28:49;20.70;40.00
29547;DHT22;40782;47.264;11.330;2023-03-05T14:31:16;20.50;25.30
29547;DHT22;40782;47.264;11.330;2023-03-05T14:33:45;20.30;25.00
29547;DHT22;40782;47.264;11.330;2023-03-05T14:36:12;19.50;25.50
29547;DHT22;40782;47.264;11.330;2023-03-05T14:38:40;19.20;28.20
29547;DHT22;40782;47.264;11.330;2023-03-05T14:41:19;19.00;26.00
29547;DHT22;40782;47.264;11.330;2023-03-05T14:43:47;18.60;26.80
29547;DHT22;40782;47.264;11.330;2023-03-05T14:46:14;18.40;29.30
29547;DHT22;40782;47.264;11.330;2023-03-05T14:48:41;18.30;29.40
29547;DHT22;40782;47.264;11.330;2023-03-05T14:51:09;18.50;30.90
29547;DHT22;40782;47.264;11.330;2023-03-05T14:53:38;18.80;31.00
29547;DHT22;40782;47.264;11.330;2023-03-05T14:56:09;19.30;49.90
29547;DHT22;40782;47.264;11.330;2023-03-05T14:58:39;19.60;29.70
29547;DHT22;40782;47.264;11.330;2023-03-05T15:01:08;19.50;28.40
29547;DHT22;40782;47.264;11.330;2023-03-05T15:03:35;19.60;27.50
29547;DHT22;40782;47.264;11.330;2023-03-05T15:06:05;19.70;26.30
29547;DHT22;40782;47.264;11.330;2023-03-05T15:08:34;19.30;27.00
29547;DHT22;40782;47.264;11.330;2023-03-05T15:11:01;19.40;27.60
29547;DHT22;40782;47.264;11.330;2023-03-05T15:13:31;19.60;25.80
29547;DHT22;40782;47.264;11.330;2023-03-05T15:16:00;19.50;25.30
29547;DHT22;40782;47.264;11.330;2023-03-05T15:18:27;19.20;25.00
29547;DHT22;40782;47.264;11.330;2023-03-05T15:20:54;19.00;25.30
29547;DHT22;40782;47.264;11.330;2023-03-05T15:23:21;18.40;25.50
29547;DHT22;40782;47.264;11.330;2023-03-05T15:25:50;18.10;25.90
29547;DHT22;40782;47.264;11.330;2023-03-05T15:28:17;18.20;26.90
29547;DHT22;40782;47.264;11.330;2023-03-05T15:30:45;18.10;27.80
29547;DHT22;40782;47.264;11.330;2023-03-05T15:33:13;17.80;28.50
29547;DHT22;40782;47.264;11.330;2023-03-05T15:35:41;17.50;28.30
29547;DHT22;40782;47.264;11.330;2023-03-05T15:38:08;17.60;29.40
29547;DHT22;40782;47.264;11.330;2023-03-05T15:40:35;17.50;29.50
29547;DHT22;40782;47.264;11.330;2023-03-05T15:43:04;17.30;31.10
29547;DHT22;40782;47.264;11.330;2023-03-05T15:45:31;16.90;31.80
29547;DHT22;40782;47.264;11.330;2023-03-05T15:47:58;16.80;51.90
29547;DHT22;40782;47.264;11.330;2023-03-05T15:50:25;16.40;34.50
29547;DHT22;40782;47.264;11.330;2023-03-05T15:52:53;16.30;35.70